Time;durP1;ratioP1;P1;durP2;ratioP2;P2;SDS_P1;SDS_P2;PMS_P1;PMS_P2;Temp;Humidity;BMP_temperature;BMP_pressure;BME280_temperature;BME280_humidity;BME280_pressure;Samples;Min_cycle;Max_cycle;Signal;HPM_P1;HPM_P2
2024/04/06 00:00:27;;;;;;;;;;;15.10;99.90;;;14.36;100.00;97701.31;5015889;28;1628;-70
2024/04/06 00:02:53;;;;;;;;;;;15.10;99.90;;;14.38;100.00;97695.06;5004468;28;2057;-70
2024/04/06 00:05:19;;;;;;;;;;;15.00;99.90;;;14.36;100.00;97696.09;5004657;28;1631;-70
2024/04/06 00:07:46;;;;;;;;;;;15.00;99.90;;;14.33;100.00;97699.72;5019190;28;1590;-70
2024/04/06 00:10:12;;;;;;;;;;;15.00;99.90;;;14.36;100.00;97696.09;5018549;28;1748;-70
2024/04/06 00:12:38;;;;;;;;;;;15.00;99.90;;;14.35;100.00;97695.25;5019168;28;1590;-70
2024/04/06 00:15:04;;;;;;;;;;;15.00;99.90;;;14.35;100.00;97695.25;5019829;28;1932;-70
2024/04/06 00:17:32;;;;;;;;;;;15.00;99.90;;;14.30;100.00;97691.19;5018942;28;2003;-70
2024/04/06 00:19:58;;;;;;;;;;;15.00;99.90;;;14.22;100.00;97692.47;5035701;28;1468;-70
2024/04/06 00:22:24;;;;;;;;;;;14.90;99.90;;;14.22;100.00;97692.47;5006056;28;1426;-70
2024/04/06 00:24:49;;;;;;;;;;;14.90;99.90;;;14.21;100.00;97684.75;5030153;28;1419;-70
2024/04/06 00:27:15;;;;;;;;;;;14.90;99.90;;;14.25;100.00;97695.84;5035503;28;1548;-70
2024/04/06 00:29:41;;;;;;;;;;;14.90;99.90;;;14.19;100.00;97702.25;5031684;28;3247;-70
2024/04/06 00:32:07;;;;;;;;;;;14.90;99.90;;;14.28;100.00;97695.66;5004601;28;1663;-70
2024/04/06 00:34:33;;;;;;;;;;;14.90;99.90;;;14.08;100.00;97696.78;5030641;28;1966;-70
2024/04/06 00:37:01;;;;;;;;;;;14.80;99.90;;;14.19;100.00;97699.66;5029959;28;1859;-70
2024/04/06 00:39:28;;;;;;;;;;;14.80;99.90;;;14.29;100.00;97703.41;5022091;28;1847;-70
2024/04/06 00:41:54;;;;;;;;;;;14.80;99.90;;;14.08;100.00;97699.41;5013542;28;1599;-70
2024/04/06 00:44:20;;;;;;;;;;;14.80;99.90;;;14.00;100.00;97690.22;5032791;28;2005;-70
2024/04/06 00:46:46;;;;;;;;;;;14.70;99.90;;;13.97;100.00;97692.97;5031991;28;1649;-70
2024/04/06 00:49:11;;;;;;;;;;;14.70;99.90;;;13.93;100.00;97698.44;5028610;28;1606;-70
2024/04/06 00:51:37;;;;;;;;;;;14.60;99.90;;;13.90;100.00;97686.41;5030207;28;1780;-70
2024/04/06 00:54:03;;;;;;;;;;;14.60;99.90;;;14.18;100.00;97684.91;5021421;28;1906;-70
2024/04/06 00:56:29;;;;;;;;;;;14.70;99.90;;;13.92;100.00;97676.72;5031701;28;1622;-70
2024/04/06 00:58:55;;;;;;;;;;;14.70;99.90;;;13.79;100.00;97671.31;5013176;28;1634;-71
2024/04/06 01:01:21;;;;;;;;;;;14.60;99.90;;;13.78;100.00;97681.88;5031055;28;1629;-70
2024/04/06 01:03:46;;;;;;;;;;;14.50;99.90;;;13.90;100.00;97681.19;5030616;28;1359;-70
2024/04/06 01:06:12;;;;;;;;;;;14.50;99.90;;;13.83;100.00;97676.41;5032220;28;1658;-70
2024/04/06 01:08:40;;;;;;;;;;;14.50;99.90;;;13.90;100.00;97659.47;5017026;28;1352;-70
2024/04/06 01:11:06;;;;;;;;;;;14.50;99.90;;;13.74;100.00;97662.91;5013100;28;3270;-70
2024/04/06 01:13:31;;;;;;;;;;;14.50;99.90;;;13.83;100.00;97653.75;5031265;28;2443;-70
2024/04/06 01:15:58;;;;;;;;;;;14.50;99.90;;;13.84;100.00;97647.59;5017650;28;1910;-70
2024/04/06 01:18:23;;;;;;;;;;;14.50;99.90;;;13.71;100.00;97642.22;5029179;28;1713;-70
2024/04/06 01:20:50;;;;;;;;;;;14.50;99.90;;;13.66;100.00;97641.63;5013014;28;1508;-70
2024/04/06 01:23:15;;;;;;;;;;;14.40;99.90;;;13.85;100.00;97635.41;5032055;28;1845;-70
2024/04/06 01:25:41;;;;;;;;;;;14.40;99.90;;;13.74;100.00;97647.25;5012600;28;2027;-70
2024/04/06 01:28:07;;;;;;;;;;;14.40;99.90;;;13.56;100.00;97635.22;5030121;28;1614;-70
2024/04/06 01:30:33;;;;;;;;;;;14.30;99.90;;;13.38;100.00;97639.66;5030828;28;1721;-70
2024/04/06 01:32:59;;;;;;;;;;;14.30;99.90;;;13.55;100.00;97629.16;5029395;28;1430;-70
2024/04/06 01:35:25;;;;;;;;;;;14.30;99.90;;;13.42;100.00;97637.72;5029047;28;1907;-70
2024/04/06 01:37:51;;;;;;;;;;;14.20;99.90;;;13.36;100.00;97638.88;5031359;28;1797;-70
2024/04/06 01:40:17;;;;;;;;;;;14.20;99.90;;;13.34;100.00;97643.31;5033239;28;2180;-70
2024/04/06 01:42:43;;;;;;;;;;;14.10;99.90;;;13.41;100.00;97631.69;5030185;28;1584;-70
2024/04/06 01:45:09;;;;;;;;;;;14.10;99.90;;;13.49;100.00;97626.03;5032825;28;1550;-70
2024/04/06 01:47:35;;;;;;;;;;;14.10;99.90;;;13.39;100.00;97628.31;5028935;28;2447;-70
2024/04/06 01:50:03;;;;;;;;;;;14.20;99.90;;;13.41;100.00;97617.78;5029839;28;1668;-70
2024/04/06 01:52:29;;;;;;;;;;;14.10;99.90;;;13.30;100.00;97616.59;5011802;28;3783;-70
2024/04/06 01:54:57;;;;;;;;;;;14.10;99.90;;;13.37;100.00;97614.50;5029429;28;1902;-70
2024/04/06 01:57:23;;;;;;;;;;;14.10;99.90;;;13.48;100.00;97613.91;5000186;28;1541;-70
2024/04/06 01:59:49;;;;;;;;;;;14.20;99.90;;;13.48;100.00;97613.91;5028898;28;1607;-70
2024/04/06 02:02:15;;;;;;;;;;;14.20;99.90;;;13.46;100.00;97615.78;5031496;28;1637;-70
2024/04/06 02:04:41;;;;;;;;;;;14.10;99.90;;;13.50;100.00;97609.47;5027827;28;1399;-70
2024/04/06 02:07:08;;;;;;;;;;;14.20;99.90;;;13.55;100.00;97623.94;5029131;28;2096;-70
2024/04/06 02:09:34;;;;;;;;;;;14.20;99.90;;;13.48;100.00;97632.16;5028634;28;1661;-70
2024/04/06 02:12:00;;;;;;;;;;;14.20;99.90;;;13.43;100.00;97632.41;5029188;28;1650;-70
2024/04/06 02:14:25;;;;;;;;;;;14.20;99.90;;;13.43;100.00;97621.97;5030822;28;1985;-69
2024/04/06 02:16:51;;;;;;;;;;;14.20;99.90;;;13.35;100.00;97624.19;5013169;28;1401;-70
2024/04/06 02:19:17;;;;;;;;;;;14.10;99.90;;;13.62;100.00;97644.50;5025519;28;1993;-69
2024/04/06 02:21:43;;;;;;;;;;;14.20;99.90;;;13.50;100.00;97631.19;5028447;28;1769;-69
2024/04/06 02:24:09;;;;;;;;;;;14.20;99.90;;;13.42;100.00;97635.13;5030101;28;1657;-70
2024/04/06 02:26:35;;;;;;;;;;;14.20;99.90;;;13.51;100.00;97629.41;5011885;28;1761;-70
2024/04/06 02:29:01;;;;;;;;;;;14.10;99.90;;;13.42;100.00;97635.13;5046383;28;1428;-70
2024/04/06 02:31:27;;;;;;;;;;;14.10;99.90;;;13.36;100.00;97641.50;5030486;28;1503;-70
2024/04/06 02:33:53;;;;;;;;;;;14.10;99.90;;;13.31;100.00;97622.66;5027410;28;3073;-70
2024/04/06 02:36:19;;;;;;;;;;;14.00;99.90;;;13.38;100.00;97629.22;5027123;28;1663;-70
2024/04/06 02:38:47;;;;;;;;;;;14.00;99.90;;;13.32;100.00;97608.69;5012297;28;1414;-70
2024/04/06 02:41:12;;;;;;;;;;;14.00;99.90;;;13.36;100.00;97610.19;5027529;28;1407;-70
2024/04/06 02:43:39;;;;;;;;;;;14.00;99.90;;;13.29;100.00;97607.06;5029636;28;1391;-70
2024/04/06 02:46:04;;;;;;;;;;;14.00;99.90;;;13.19;100.00;97618.91;5028413;28;1589;-70
2024/04/06 02:48:30;;;;;;;;;;;13.90;99.90;;;13.16;100.00;97621.66;5028409;28;2017;-70
2024/04/06 02:50:57;;;;;;;;;;;13.90;99.90;;;13.11;100.00;97626.25;5029866;28;1404;-70
2024/04/06 02:53:23;;;;;;;;;;;13.90;99.90;;;13.21;100.00;97632.69;5026693;28;1364;-69
2024/04/06 02:55:50;;;;;;;;;;;13.90;99.90;;;13.20;100.00;97631.00;5026048;28;1983;-70
2024/04/06 02:58:16;;;;;;;;;;;13.90;99.90;;;13.11;100.00;97631.47;5026458;28;1494;-70
2024/04/06 03:00:42;;;;;;;;;;;13.90;99.90;;;13.16;100.00;97632.09;5028206;28;1801;-70
2024/04/06 03:03:08;;;;;;;;;;;13.90;99.90;;;13.17;100.00;97629.38;5012919;28;2155;-70
2024/04/06 03:05:34;;;;;;;;;;;13.90;99.90;;;13.21;100.00;97635.28;5028589;28;1630;-70
2024/04/06 03:08:00;;;;;;;;;;;13.90;99.90;;;13.09;100.00;97635.91;5029682;28;1437;-69
2024/04/06 03:10:26;;;;;;;;;;;13.90;99.90;;;13.17;100.00;97636.38;5027419;28;2464;-70
2024/04/06 03:12:52;;;;;;;;;;;13.80;99.90;;;13.09;100.00;97641.13;5026899;28;3474;-70
2024/04/06 03:15:18;;;;;;;;;;;13.80;99.90;;;12.94;100.00;97635.78;5029433;28;1903;-70
2024/04/06 03:17:43;;;;;;;;;;;13.80;99.90;;;12.86;100.00;97645.75;5027493;28;1731;-70
2024/04/06 03:20:10;;;;;;;;;;;13.70;99.90;;;12.90;100.00;97662.09;5027527;28;1816;-69
2024/04/06 03:22:35;;;;;;;;;;;13.60;99.90;;;12.94;100.00;97645.38;5027605;28;1739;-69
2024/04/06 03:25:01;;;;;;;;;;;13.60;99.90;;;12.86;100.00;97644.91;5027182;28;2001;-70
2024/04/06 03:27:27;;;;;;;;;;;13.60;99.90;;;12.94;100.00;97658.41;5035405;28;1680;-70
2024/04/06 03:29:53;;;;;;;;;;;13.60;99.90;;;12.89;100.00;97663.84;5028624;28;1401;-70
2024/04/06 03:32:19;;;;;;;;;;;13.70;99.90;;;12.84;100.00;97675.41;5032171;28;1532;-70
2024/04/06 03:34:45;;;;;;;;;;;13.60;99.90;;;12.88;100.00;97662.16;5014905;28;1907;-70
2024/04/06 03:37:11;;;;;;;;;;;13.60;99.90;;;13.05;100.00;97656.09;5034084;28;1590;-70
2024/04/06 03:39:37;;;;;;;;;;;13.60;99.90;;;13.04;100.00;97651.78;5010870;28;2095;-70
2024/04/06 03:42:03;;;;;;;;;;;13.70;99.90;;;12.98;100.00;97649.53;5027071;28;1546;-70
2024/04/06 03:44:29;;;;;;;;;;;13.70;99.90;;;12.97;100.00;97647.81;5028003;28;1479;-70
2024/04/06 03:46:55;;;;;;;;;;;13.60;99.90;;;12.95;100.00;97653.13;5027501;28;2431;-70
2024/04/06 03:49:23;;;;;;;;;;;13.70;99.90;;;12.97;100.00;97645.22;5019575;28;1561;-70
2024/04/06 03:51:49;;;;;;;;;;;13.70;99.90;;;13.03;100.00;97651.88;5012287;28;1595;-70
2024/04/06 03:54:15;;;;;;;;;;;13.70;99.90;;;12.96;100.00;97653.97;5027780;28;1987;-70
2024/04/06 03:56:40;;;;;;;;;;;13.80;99.90;;;12.96;100.00;97653.97;5029314;28;1613;-70
2024/04/06 03:59:06;;;;;;;;;;;13.70;99.90;;;13.00;100.00;97639.00;5030857;28;1582;-70
2024/04/06 04:01:32;;;;;;;;;;;13.70;99.90;;;12.86;100.00;97650.97;5031025;28;3172;-70
2024/04/06 04:03:58;;;;;;;;;;;13.70;99.90;;;12.93;100.00;97644.53;5033176;28;1292;-70
2024/04/06 04:06:24;;;;;;;;;;;13.70;99.90;;;12.94;100.00;97648.81;5032280;28;1634;-70
2024/04/06 04:08:49;;;;;;;;;;;13.60;99.90;;;12.90;100.00;97657.72;5014749;28;1451;-70
2024/04/06 04:11:15;;;;;;;;;;;13.60;99.90;;;12.81;100.00;97654.72;5030299;28;1387;-70
2024/04/06 04:13:41;;;;;;;;;;;13.60;99.90;;;12.82;100.00;97645.97;5030659;28;1365;-70
2024/04/06 04:16:07;;;;;;;;;;;13.60;99.90;;;12.85;100.00;97651.88;5033372;28;2128;-70
2024/04/06 04:18:34;;;;;;;;;;;13.60;99.90;;;13.03;100.00;97655.34;5012286;28;1641;-70
2024/04/06 04:21:00;;;;;;;;;;;13.60;99.90;;;12.85;100.00;97659.72;5034969;28;1553;-70
2024/04/06 04:23:26;;;;;;;;;;;13.60;99.90;;;12.89;100.00;97669.06;5038205;28;1566;-70
2024/04/06 04:25:52;;;;;;;;;;;13.60;99.90;;;12.93;100.00;97662.78;5007777;28;1872;-70
2024/04/06 04:28:18;;;;;;;;;;;13.50;99.90;;;12.96;100.00;97673.03;5033671;28;2005;-69
2024/04/06 04:30:44;;;;;;;;;;;13.50;99.90;;;12.85;100.00;97677.94;5030647;28;1745;-70
2024/04/06 04:33:10;;;;;;;;;;;13.50;99.90;;;12.85;100.00;97664.91;5031795;28;1598;-70
2024/04/06 04:35:36;;;;;;;;;;;13.40;99.90;;;12.88;100.00;97663.91;5029817;28;1972;-70
2024/04/06 04:38:02;;;;;;;;;;;13.50;99.90;;;12.83;100.00;97666.75;5016319;28;1773;-70
2024/04/06 04:40:28;;;;;;;;;;;13.50;99.90;;;12.93;100.00;97669.72;5030061;28;1487;-70
2024/04/06 04:42:54;;;;;;;;;;;13.50;99.90;;;13.00;100.00;97665.06;5032287;28;3129;-70
2024/04/06 04:45:19;;;;;;;;;;;13.60;99.90;;;12.96;100.00;97673.03;5032538;28;1623;-70
2024/04/06 04:47:45;;;;;;;;;;;13.60;99.90;;;13.06;100.00;97662.97;5015395;28;1514;-70
2024/04/06 04:50:11;;;;;;;;;;;13.60;99.90;;;12.96;100.00;97670.44;5017077;28;1645;-70
2024/04/06 04:52:37;;;;;;;;;;;13.70;99.90;;;12.85;100.00;97672.72;5029951;28;1844;-70
2024/04/06 04:55:06;;;;;;;;;;;13.60;99.90;;;12.78;100.00;97671.34;5033818;28;1914;-70
2024/04/06 04:57:32;;;;;;;;;;;13.50;99.90;;;12.87;100.00;97670.06;5032639;28;2188;-69
2024/04/06 04:59:58;;;;;;;;;;;13.60;99.90;;;12.89;100.00;97670.84;5028421;28;1511;-70
2024/04/06 05:02:25;;;;;;;;;;;13.60;99.90;;;12.90;100.00;97675.09;5029902;28;1567;-70
2024/04/06 05:04:51;;;;;;;;;;;13.50;99.90;;;12.75;100.00;97669.75;5011860;28;1421;-70
2024/04/06 05:07:21;;;;;;;;;;;13.50;99.90;;;12.84;100.00;97665.84;5028472;28;1441;-70
2024/04/06 05:09:48;;;;;;;;;;;13.50;99.90;;;12.85;100.00;97666.69;5028038;28;2100;-70
2024/04/06 05:12:14;;;;;;;;;;;13.50;99.90;;;12.99;100.00;97656.41;5029082;28;2342;-70
2024/04/06 05:14:40;;;;;;;;;;;13.60;99.90;;;12.89;100.00;97660.41;5036287;28;2431;-70
2024/04/06 05:17:06;;;;;;;;;;;13.70;99.90;;;12.97;100.00;97661.69;5031752;28;1637;-70
2024/04/06 05:19:32;;;;;;;;;;;13.70;99.90;;;12.96;100.00;97660.00;5028018;28;1710;-69
2024/04/06 05:21:58;;;;;;;;;;;13.70;99.90;;;13.06;100.00;97649.13;5014229;28;1514;-70
2024/04/06 05:24:24;;;;;;;;;;;13.70;99.90;;;13.01;100.00;97646.75;5029315;28;2051;-70
2024/04/06 05:26:50;;;;;;;;;;;13.70;99.90;;;13.15;100.00;97649.47;5030355;28;1850;-70
2024/04/06 05:29:16;;;;;;;;;;;13.80;99.90;;;13.18;100.00;97658.91;5027621;28;3216;-70
2024/04/06 05:31:42;;;;;;;;;;;13.80;99.90;;;13.20;100.00;97664.88;5027633;28;1746;-69
2024/04/06 05:34:08;;;;;;;;;;;13.90;99.90;;;13.15;100.00;97666.88;5012227;28;1903;-69
2024/04/06 05:36:34;;;;;;;;;;;13.90;99.90;;;13.24;100.00;97676.84;5031533;28;1655;-69
2024/04/06 05:39:00;;;;;;;;;;;13.90;99.90;;;13.35;100.00;97666.72;5029059;28;1634;-70
2024/04/06 05:41:26;;;;;;;;;;;14.00;99.90;;;13.33;100.00;97672.94;5028361;28;1942;-70
2024/04/06 05:43:53;;;;;;;;;;;14.00;99.90;;;13.41;100.00;97673.41;5030564;28;1712;-70
2024/04/06 05:46:19;;;;;;;;;;;14.10;99.90;;;13.54;100.00;97669.19;5026941;28;2365;-70
2024/04/06 05:48:45;;;;;;;;;;;14.10;99.90;;;13.70;100.00;97677.03;5030139;28;1904;-70
2024/04/06 05:51:11;;;;;;;;;;;14.20;99.90;;;13.61;100.00;97664.50;5028565;28;1628;-70
2024/04/06 05:53:40;;;;;;;;;;;14.20;99.90;;;13.51;100.00;97671.97;5031050;28;1762;-70
2024/04/06 05:56:08;;;;;;;;;;;14.20;99.90;;;13.64;100.00;97679.13;5028245;28;2082;-70
2024/04/06 05:58:37;;;;;;;;;;;14.20;99.90;;;13.69;100.00;97680.59;5028820;28;1543;-70
2024/04/06 06:01:03;;;;;;;;;;;14.30;99.90;;;13.69;100.00;97680.59;5005347;28;1903;-70
2024/04/06 06:03:29;;;;;;;;;;;14.30;99.90;;;13.72;100.00;97683.03;5010057;28;1586;-70
2024/04/06 06:05:55;;;;;;;;;;;14.40;99.90;;;13.80;100.00;97667.81;5029625;28;1738;-69
2024/04/06 06:08:21;;;;;;;;;;;14.40;99.90;;;13.81;100.00;97674.69;5029637;28;1376;-70
2024/04/06 06:10:47;;;;;;;;;;;14.50;99.90;;;13.78;100.00;97679.25;5029028;28;1770;-70
2024/04/06 06:13:13;;;;;;;;;;;14.50;99.90;;;13.95;100.00;97666.13;5028806;28;1709;-70
2024/04/06 06:15:39;;;;;;;;;;;14.60;99.90;;;14.00;100.00;97660.66;5028353;28;3142;-70
2024/04/06 06:18:05;;;;;;;;;;;14.70;99.90;;;14.09;100.00;97673.19;5026839;28;1463;-70
2024/04/06 06:20:31;;;;;;;;;;;14.60;99.90;;;14.17;100.00;97667.56;5026597;28;1647;-70
2024/04/06 06:22:57;;;;;;;;;;;14.80;99.90;;;14.23;100.00;97651.53;5027235;28;1740;-70
2024/04/06 06:25:24;;;;;;;;;;;14.90;99.90;;;14.32;100.00;97665.84;5029607;28;1594;-70
2024/04/06 06:27:51;;;;;;;;;;;14.90;99.90;;;14.36;100.00;97662.97;5026981;28;1776;-70
2024/04/06 06:30:16;;;;;;;;;;;15.00;99.90;;;14.44;100.00;97650.34;5005898;28;1534;-70
2024/04/06 06:32:42;;;;;;;;;;;15.10;99.90;;;14.46;100.00;97657.22;5031694;28;1639;-70
2024/04/06 06:35:10;;;;;;;;;;;15.20;99.90;;;14.46;100.00;97649.41;5036327;28;1902;-70
2024/04/06 06:37:36;;;;;;;;;;;15.20;99.90;;;14.44;100.00;97662.56;5026542;28;1819;-70
2024/04/06 06:40:02;;;;;;;;;;;15.10;99.90;;;14.43;100.00;97655.63;5030608;28;1762;-70
2024/04/06 06:42:29;;;;;;;;;;;15.10;99.90;;;14.48;100.00;97658.81;5008917;28;1550;-70
2024/04/06 06:44:55;;;;;;;;;;;15.10;99.90;;;14.36;100.00;97665.59;5028208;28;1970;-70
2024/04/06 06:47:24;;;;;;;;;;;15.10;99.90;;;14.39;100.00;97675.88;5026639;28;2212;-69
2024/04/06 06:49:50;;;;;;;;;;;15.20;99.90;;;14.46;100.00;97662.44;5014192;28;1725;-70
2024/04/06 06:52:16;;;;;;;;;;;15.10;99.90;;;14.53;100.00;97661.16;5028681;28;1411;-69
2024/04/06 06:54:42;;;;;;;;;;;15.20;99.90;;;14.70;100.00;97665.47;5026973;28;1952;-70
2024/04/06 06:57:08;;;;;;;;;;;15.30;99.90;;;14.80;100.00;97661.38;5025682;28;1360;-70
2024/04/06 06:59:34;;;;;;;;;;;15.30;99.90;;;14.90;100.00;97662.53;5029053;28;3206;-70
2024/04/06 07:01:59;;;;;;;;;;;15.40;99.90;;;14.97;100.00;97653.41;5028540;28;1747;-70
2024/04/06 07:04:25;;;;;;;;;;;15.50;99.90;;;15.01;100.00;97652.28;5013577;28;1525;-70
2024/04/06 07:06:51;;;;;;;;;;;15.60;99.90;;;15.19;100.00;97657.34;5010272;28;1533;-70
2024/04/06 07:09:17;;;;;;;;;;;15.70;99.90;;;15.24;100.00;97650.09;5013246;28;1634;-70
2024/04/06 07:11:43;;;;;;;;;;;15.80;99.90;;;15.29;100.00;97649.81;5012667;28;2393;-70
2024/04/06 07:14:11;;;;;;;;;;;15.90;99.90;;;15.38;100.00;97657.09;5008868;28;2728;-70
2024/04/06 07:16:38;;;;;;;;;;;16.00;99.90;;;15.39;100.00;97658.75;5027848;28;1693;-70
2024/04/06 07:19:04;;;;;;;;;;;16.00;99.90;;;15.42;100.00;97664.66;5012849;28;1861;-70
2024/04/06 07:21:29;;;;;;;;;;;16.10;99.90;;;15.65;100.00;97654.56;5029004;28;1603;-70
2024/04/06 07:23:55;;;;;;;;;;;16.10;99.90;;;15.81;100.00;97631.75;5025540;28;1659;-70
2024/04/06 07:26:21;;;;;;;;;;;16.20;99.90;;;15.94;100.00;97641.44;5025721;28;2320;-70
2024/04/06 07:28:47;;;;;;;;;;;16.30;99.90;;;15.88;100.00;97638.28;5029359;28;1566;-70
2024/04/06 07:31:13;;;;;;;;;;;16.40;99.90;;;15.87;100.00;97627.91;5018648;28;1768;-70
2024/04/06 07:33:39;;;;;;;;;;;16.40;99.90;;;16.00;100.00;97625.34;5031745;28;1613;-70
2024/04/06 07:36:05;;;;;;;;;;;16.50;99.90;;;16.13;100.00;97628.88;5032932;28;1930;-70
2024/04/06 07:38:31;;;;;;;;;;;16.60;99.90;;;16.17;100.00;97626.88;5033038;28;1447;-70
2024/04/06 07:40:58;;;;;;;;;;;16.60;99.90;;;16.23;100.00;97614.22;5034958;28;3370;-70
2024/04/06 07:43:24;;;;;;;;;;;16.70;99.90;;;16.26;100.00;97611.44;5034705;28;1404;-70
2024/04/06 07:45:50;;;;;;;;;;;16.80;99.90;;;16.34;100.00;97624.03;5031068;28;2429;-70
2024/04/06 07:48:17;;;;;;;;;;;16.90;99.90;;;16.45;100.00;97608.44;5033358;28;1606;-70
2024/04/06 07:50:44;;;;;;;;;;;17.00;99.90;;;16.55;100.00;97616.53;5033109;28;2209;-70
2024/04/06 07:53:10;;;;;;;;;;;17.00;99.90;;;16.69;100.00;97605.97;5030697;28;1568;-70
2024/04/06 07:55:36;;;;;;;;;;;17.10;99.90;;;16.77;100.00;97604.63;5029951;28;1898;-70
2024/04/06 07:58:02;;;;;;;;;;;17.10;99.90;;;16.82;100.00;97576.34;5035954;28;1732;-70
2024/04/06 08:00:28;;;;;;;;;;;17.20;99.90;;;17.01;100.00;97581.16;5030615;28;2113;-70
2024/04/06 08:02:54;;;;;;;;;;;17.20;99.90;;;17.05;100.00;97587.88;5033050;28;1534;-69
2024/04/06 08:05:20;;;;;;;;;;;17.40;99.90;;;17.45;100.00;97578.09;5024471;28;2493;-70
2024/04/06 08:07:46;;;;;;;;;;;17.50;99.90;;;17.93;100.00;97541.41;5032745;28;1610;-70
2024/04/06 08:10:19;;;;;;;;;;;17.70;99.90;;;17.95;100.00;97557.06;5032987;28;1596;-70
2024/04/06 08:12:45;;;;;;;;;;;17.90;99.90;;;18.58;100.00;97547.13;5047987;28;1735;-70
2024/04/06 08:15:11;;;;;;;;;;;18.20;99.90;;;18.73;100.00;97543.34;5031702;28;2265;-70
2024/04/06 08:17:40;;;;;;;;;;;18.60;99.90;;;18.98;100.00;97529.16;5032775;28;2411;-70
2024/04/06 08:20:07;;;;;;;;;;;19.00;99.90;;;19.25;100.00;97527.13;5031133;28;1446;-70
2024/04/06 08:22:33;;;;;;;;;;;19.60;99.90;;;19.49;100.00;97519.09;5022582;28;1632;-70
2024/04/06 08:24:59;;;;;;;;;;;;;;;19.71;100.00;97528.78;5047965;28;1601;-70
2024/04/06 08:27:25;;;;;;;;;;;20.80;99.90;;;19.77;100.00;97523.00;5033320;28;1888;-70
2024/04/06 08:29:51;;;;;;;;;;;21.50;99.90;;;20.27;100.00;97521.50;5031782;28;3217;-70
2024/04/06 08:32:17;;;;;;;;;;;21.90;99.90;;;20.30;100.00;97525.69;5030870;28;1618;-70
2024/04/06 08:34:43;;;;;;;;;;;22.50;99.90;;;20.99;100.00;97514.59;5012305;28;1899;-70
2024/04/06 08:37:09;;;;;;;;;;;22.60;99.70;;;20.22;100.00;97502.59;5015678;28;1776;-70
2024/04/06 08:39:35;;;;;;;;;;;22.40;97.50;;;20.58;100.00;97489.13;5033031;28;1481;-70
2024/04/06 08:42:02;;;;;;;;;;;22.50;97.60;;;20.77;100.00;97483.94;5027812;28;1756;-70
2024/04/06 08:44:42;;;;;;;;;;;22.20;97.40;;;20.78;100.00;97477.72;5039548;28;2079;-70
2024/04/06 08:47:11;;;;;;;;;;;22.50;97.20;;;20.88;100.00;97462.75;5008890;28;1629;-70
2024/04/06 08:49:38;;;;;;;;;;;22.20;96.30;;;20.63;100.00;97471.94;4991097;28;1806;-70
2024/04/06 08:52:05;;;;;;;;;;;22.80;95.60;;;21.55;100.00;97454.34;5025460;28;1365;-70
2024/04/06 08:54:31;;;;;;;;;;;23.20;94.80;;;21.67;100.00;97443.53;5023955;28;1979;-71
2024/04/06 08:56:59;;;;;;;;;;;23.20;95.00;;;22.13;100.00;97451.72;5018968;28;1598;-71
2024/04/06 08:59:25;;;;;;;;;;;23.50;94.50;;;22.01;100.00;97443.09;5026982;28;2128;-70
2024/04/06 09:01:51;;;;;;;;;;;23.20;93.20;;;22.32;100.00;97430.56;5029147;28;1463;-70
2024/04/06 09:04:17;;;;;;;;;;;23.20;93.80;;;21.65;100.00;97442.81;4995613;28;1571;-70
2024/04/06 09:06:46;;;;;;;;;;;23.20;93.40;;;21.59;100.00;97430.16;5029914;28;1618;-70
2024/04/06 09:09:12;;;;;;;;;;;23.40;92.80;;;21.87;100.00;97427.66;5015086;28;3104;-71
2024/04/06 09:11:38;;;;;;;;;;;23.90;92.40;;;22.41;100.00;97420.09;5029804;28;1627;-70
2024/04/06 09:14:05;;;;;;;;;;;24.10;92.40;;;22.20;100.00;97429.03;5027956;28;2567;-71
2024/04/06 09:16:33;;;;;;;;;;;24.20;90.80;;;23.32;100.00;97399.91;5012750;28;1899;-70
2024/04/06 09:18:58;;;;;;;;;;;24.80;91.40;;;23.00;100.00;97416.28;5021793;28;1491;-70
2024/04/06 09:21:24;;;;;;;;;;;25.10;90.80;;;24.07;100.00;97375.75;5025239;28;1802;-70
2024/04/06 09:23:59;;;;;;;;;;;24.60;89.30;;;23.55;100.00;97389.72;5027608;28;1752;-70
2024/04/06 09:26:31;;;;;;;;;;;25.30;90.20;;;24.12;100.00;97389.38;5028037;28;1981;-71
2024/04/06 09:29:00;;;;;;;;;;;24.90;89.80;;;23.91;100.00;97387.06;5012775;28;1621;-70
2024/04/06 09:31:28;;;;;;;;;;;24.80;88.80;;;23.14;100.00;97384.00;5027577;28;1599;-70
2024/04/06 09:33:58;;;;;;;;;;;24.50;89.00;;;23.49;100.00;97379.75;5029450;28;1716;-70
2024/04/06 09:36:25;;;;;;;;;;;23.90;86.90;;;22.63;100.00;97406.53;5011284;28;1644;-70
2024/04/06 09:38:53;;;;;;;;;;;23.10;86.90;;;22.47;100.00;97415.06;5027616;28;1517;-70
2024/04/06 09:41:20;;;;;;;;;;;22.70;88.10;;;22.81;100.00;97409.25;5030125;28;2205;-70
2024/04/06 09:43:53;;;;;;;;;;;23.00;89.00;;;21.65;100.00;97412.94;5029020;28;1633;-70
2024/04/06 09:46:20;;;;;;;;;;;;;;;21.74;100.00;97408.63;5028557;28;2593;-70
2024/04/06 09:48:46;;;;;;;;;;;22.50;90.10;;;22.07;100.00;97397.59;5032494;28;1813;-70
2024/04/06 09:51:12;;;;;;;;;;;22.50;88.90;;;22.46;100.00;97383.47;5028827;28;2432;-71
2024/04/06 09:53:40;;;;;;;;;;;22.90;88.80;;;22.38;100.00;97402.72;5025510;28;1285;-70
2024/04/06 09:56:07;;;;;;;;;;;22.80;88.80;;;21.87;100.00;97419.72;5018461;28;3955;-70
2024/04/06 09:58:34;;;;;;;;;;;22.40;89.90;;;21.86;100.00;97412.78;5032967;28;1821;-70
2024/04/06 10:01:07;;;;;;;;;;;22.60;90.00;;;22.12;100.00;97405.94;5011307;28;1880;-70
2024/04/06 10:03:34;;;;;;;;;;;22.90;90.40;;;22.84;100.00;97398.34;5012953;28;2369;-70
2024/04/06 10:06:11;;;;;;;;;;;23.00;90.50;;;23.44;100.00;97374.03;5032798;28;2299;-70
2024/04/06 10:08:49;;;;;;;;;;;23.40;90.00;;;24.21;100.00;97364.56;5029162;28;1597;-70
2024/04/06 10:11:23;;;;;;;;;;;23.60;90.50;;;23.40;100.00;97380.66;5011147;28;1649;-70
2024/04/06 10:14:03;;;;;;;;;;;23.90;88.20;;;23.93;100.00;97368.38;5026450;28;1614;-70
2024/04/06 10:16:34;;;;;;;;;;;24.00;88.60;;;23.85;100.00;97357.69;5025441;28;1546;-70
2024/04/06 10:19:00;;;;;;;;;;;23.80;86.40;;;24.15;100.00;97375.84;5008032;28;1539;-70
2024/04/06 10:21:29;;;;;;;;;;;24.20;90.00;;;23.93;100.00;97352.47;5029376;28;1734;-70
2024/04/06 10:23:56;;;;;;;;;;;24.10;85.10;;;24.02;100.00;97364.78;5039228;28;2333;-70
2024/04/06 10:26:22;;;;;;;;;;;24.00;85.80;;;24.45;100.00;97357.78;5013845;28;2001;-70
2024/04/06 10:28:48;;;;;;;;;;;24.00;84.10;;;24.63;100.00;97352.38;5029103;28;1695;-70
2024/04/06 10:31:14;;;;;;;;;;;23.90;85.20;;;23.85;100.00;97363.00;5009046;28;2090;-71
2024/04/06 10:33:40;;;;;;;;;;;24.10;86.50;;;23.79;100.00;97362.63;5027722;28;1525;-70
2024/04/06 10:36:10;;;;;;;;;;;24.10;85.60;;;23.23;100.00;97368.22;5027980;28;1534;-70
2024/04/06 10:38:38;;;;;;;;;;;23.60;85.40;;;23.39;100.00;97349.84;5027485;28;1570;-70
2024/04/06 10:41:10;;;;;;;;;;;23.50;85.80;;;23.08;100.00;97370.53;5028843;28;1584;-70
2024/04/06 10:43:36;;;;;;;;;;;23.50;86.90;;;23.87;100.00;97347.78;5029203;28;1609;-70
2024/04/06 10:46:03;;;;;;;;;;;23.90;87.30;;;24.58;100.00;97325.50;5011246;28;3118;-70
2024/04/06 10:48:29;;;;;;;;;;;24.20;85.30;;;24.33;100.00;97306.78;5024341;28;2499;-71
2024/04/06 10:50:58;;;;;;;;;;;24.30;83.90;;;24.13;100.00;97318.59;5013707;28;1480;-70
2024/04/06 10:53:25;;;;;;;;;;;24.20;82.70;;;24.15;100.00;97298.06;5011116;28;1601;-70
2024/04/06 10:55:52;;;;;;;;;;;24.30;81.80;;;24.04;100.00;97298.34;5027383;28;1858;-70
2024/04/06 10:58:18;;;;;;;;;;;24.40;81.30;;;23.91;100.00;97291.66;5025846;28;1571;-70
2024/04/06 11:00:45;;;;;;;;;;;24.20;82.80;;;23.55;100.00;97306.75;5010899;28;1592;-70
2024/04/06 11:03:12;;;;;;;;;;;24.50;83.10;;;23.86;100.00;97307.19;5027580;28;2066;-70
2024/04/06 11:05:38;;;;;;;;;;;24.40;84.80;;;23.64;100.00;97313.78;5027042;28;1973;-70
2024/04/06 11:08:05;;;;;;;;;;;24.80;84.00;;;23.72;100.00;97320.97;4996635;28;2535;-70
2024/04/06 11:10:32;;;;;;;;;;;24.60;82.10;;;23.70;100.00;97322.97;5010832;28;2500;-70
2024/04/06 11:12:58;;;;;;;;;;;24.80;83.10;;;23.75;100.00;97312.75;5010343;28;1436;-71